Time;durP1;ratioP1;P1;durP2;ratioP2;P2;SDS_P1;SDS_P2;PMS_P1;PMS_P2;Temp;Humidity;BMP_temperature;BMP_pressure;BME280_temperature;BME280_humidity;BME280_pressure;Samples;Min_cycle;Max_cycle;Signal;HPM_P1;HPM_P2
2021/12/10 00:01:08;;;;;;;23.87;11.80;;;;;;;;;;6215204;23;20207;-90
2021/12/10 00:04:13;;;;;;;26.77;12.20;;;;;;;;;;6214122;23;20175;-90
2021/12/10 00:07:20;;;;;;;25.70;12.30;;;;;;;;;;6215545;23;20235;-88
2021/12/10 00:10:27;;;;;;;23.43;12.27;;;;;;;;;;6213597;23;20190;-88
2021/12/10 00:13:34;;;;;;;30.23;13.50;;;;;;;;;;6214339;23;20654;-89
2021/12/10 00:16:43;;;;;;;25.80;12.17;;;;;;;;;;6215551;23;20171;-90
2021/12/10 00:19:50;;;;;;;27.13;12.40;;;;;;;;;;6216922;23;20199;-89
2021/12/10 00:22:58;;;;;;;25.30;12.00;;;;;;;;;;6214525;23;20172;-89
2021/12/10 00:26:05;;;;;;;25.07;11.93;;;;;;;;;;6213132;23;20167;-88
2021/12/10 00:29:12;;;;;;;23.63;11.27;;;;;;;;;;6212799;23;20171;-89
2021/12/10 00:32:29;;;;;;;25.47;12.47;;;;;;;;;;6211785;23;20892;-88
2021/12/10 00:35:34;;;;;;;28.00;13.17;;;;;;;;;;6213453;23;20163;-88
2021/12/10 00:38:40;;;;;;;22.77;11.83;;;;;;;;;;6214745;23;20167;-89
2021/12/10 00:41:45;;;;;;;21.80;11.23;;;;;;;;;;6215046;23;20151;-87
2021/12/10 00:44:52;;;;;;;26.80;13.00;;;;;;;;;;6214095;23;20167;-90
2021/12/10 00:47:58;;;;;;;28.20;13.07;;;;;;;;;;6211908;23;20208;-88
2021/12/10 00:51:05;;;;;;;25.53;12.50;;;;;;;;;;6213091;23;20223;-88
2021/12/10 00:54:11;;;;;;;24.97;12.17;;;;;;;;;;6213909;23;20202;-87
2021/12/10 00:57:17;;;;;;;24.27;11.97;;;;;;;;;;6213623;23;20618;-89
2021/12/10 01:00:25;;;;;;;32.97;13.93;;;;;;;;;;6210663;23;20198;-87
2021/12/10 01:03:32;;;;;;;35.47;15.33;;;;;;;;;;6214641;23;20618;-89
2021/12/10 01:06:38;;;;;;;39.50;16.83;;;;;;;;;;6213929;23;20169;-89
2021/12/10 01:09:45;;;;;;;30.43;13.50;;;;;;;;;;6213147;23;20171;-89
2021/12/10 01:12:53;;;;;;;30.57;12.97;;;;;;;;;;6213013;23;20240;-89
2021/12/10 01:16:15;;;;;;;36.33;15.17;;;;;;;;;;6212636;23;20570;-89
2021/12/10 01:26:11;;;;;;;37.40;15.60;;;;;;;;;;6212651;23;20162;-88
2021/12/10 01:29:18;;;;;;;35.53;16.00;;;;;;;;;;6214083;23;20154;-88
2021/12/10 01:32:27;;;;;;;38.73;15.37;;;;;;;;;;6211463;23;20171;-89
2021/12/10 01:35:34;;;;;;;36.33;16.27;;;;;;;;;;6212276;23;20150;-88
2021/12/10 01:38:41;;;;;;;35.27;16.60;;;;;;;;;;6212475;23;20159;-87
2021/12/10 01:41:53;;;;;;;36.50;15.63;;;;;;;;;;6211891;23;20242;-88
2021/12/10 01:44:59;;;;;;;39.60;17.10;;;;;;;;;;6210665;23;20170;-89
2021/12/10 01:48:08;;;;;;;34.83;15.53;;;;;;;;;;6213570;23;20191;-88
2021/12/10 01:51:15;;;;;;;36.20;15.83;;;;;;;;;;6212685;23;20215;-87
2021/12/10 01:54:23;;;;;;;39.20;16.37;;;;;;;;;;6214258;23;20162;-88
2021/12/10 01:57:30;;;;;;;33.43;15.70;;;;;;;;;;6212120;23;20615;-88
2021/12/10 02:00:37;;;;;;;35.30;15.53;;;;;;;;;;6213675;23;20183;-87
2021/12/10 02:03:44;;;;;;;31.60;13.00;;;;;;;;;;6213127;23;20167;-90
2021/12/10 02:06:51;;;;;;;25.37;12.60;;;;;;;;;;6212867;23;20150;-88
2021/12/10 02:09:56;;;;;;;31.10;12.97;;;;;;;;;;6212636;23;20163;-88
2021/12/10 02:13:01;;;;;;;27.17;10.97;;;;;;;;;;6213768;23;20183;-88
2021/12/10 02:16:06;;;;;;;29.77;12.50;;;;;;;;;;6214711;23;20242;-88
2021/12/10 02:19:13;;;;;;;25.47;11.13;;;;;;;;;;6215499;23;20240;-88
2021/12/10 02:22:20;;;;;;;29.63;12.03;;;;;;;;;;6215762;23;20160;-88
2021/12/10 02:25:26;;;;;;;23.67;11.83;;;;;;;;;;6213953;23;20167;-87
2021/12/10 02:28:33;;;;;;;28.23;10.40;;;;;;;;;;6215818;23;20167;-86
2021/12/10 02:31:39;;;;;;;25.53;11.43;;;;;;;;;;6216028;23;20178;-89
2021/12/10 02:34:46;;;;;;;22.03;9.20;;;;;;;;;;6217393;23;20235;-88
2021/12/10 02:37:53;;;;;;;22.27;9.70;;;;;;;;;;6213523;23;20247;-87
2021/12/10 02:40:58;;;;;;;23.77;10.67;;;;;;;;;;6217364;23;20191;-89
2021/12/10 02:44:04;;;;;;;26.33;11.37;;;;;;;;;;6213409;23;20186;-89
2021/12/10 02:47:10;;;;;;;23.07;10.80;;;;;;;;;;6214211;23;20237;-89
2021/12/10 02:50:17;;;;;;;23.37;10.90;;;;;;;;;;6215400;23;20191;-89
2021/12/10 02:53:27;;;;;;;21.83;10.47;;;;;;;;;;6214635;23;20183;-89
2021/12/10 02:56:45;;;;;;;23.73;10.07;;;;;;;;;;6213890;23;20172;-88
2021/12/10 02:59:49;;;;;;;21.03;10.10;;;;;;;;;;6214611;23;20164;-89
2021/12/10 03:02:54;;;;;;;25.30;10.17;;;;;;;;;;6216615;23;20259;-89
2021/12/10 03:06:08;;;;;;;21.93;9.63;;;;;;;;;;6215411;23;20171;-89
2021/12/10 03:09:15;;;;;;;21.30;10.33;;;;;;;;;;6215731;23;20154;-90
2021/12/10 03:12:22;;;;;;;21.37;9.40;;;;;;;;;;6215195;23;20176;-87
2021/12/10 03:15:29;;;;;;;20.67;10.27;;;;;;;;;;6215673;23;20647;-90
2021/12/10 03:18:35;;;;;;;22.13;10.13;;;;;;;;;;6213605;23;20167;-87
2021/12/10 03:21:44;;;;;;;23.80;10.33;;;;;;;;;;6214020;23;20251;-89
2021/12/10 03:24:52;;;;;;;25.87;10.97;;;;;;;;;;6214063;23;20191;-88
2021/12/10 03:27:58;;;;;;;24.13;11.27;;;;;;;;;;6212690;23;20160;-87
2021/12/10 03:31:03;;;;;;;24.53;10.63;;;;;;;;;;6215360;23;20171;-88
2021/12/10 03:34:07;;;;;;;24.47;11.27;;;;;;;;;;6215511;23;20159;-89
2021/12/10 03:37:13;;;;;;;26.23;11.30;;;;;;;;;;6214376;23;20587;-89
2021/12/10 03:40:19;;;;;;;24.13;10.70;;;;;;;;;;6214265;23;20246;-87
2021/12/10 03:43:25;;;;;;;22.30;11.00;;;;;;;;;;6213890;23;20495;-89
2021/12/10 03:46:30;;;;;;;28.83;11.20;;;;;;;;;;6214340;23;20250;-89
2021/12/10 03:49:35;;;;;;;26.87;11.43;;;;;;;;;;6211834;23;20186;-87
2021/12/10 03:52:40;;;;;;;31.87;12.47;;;;;;;;;;6212700;23;20171;-89
2021/12/10 03:55:47;;;;;;;26.60;11.50;;;;;;;;;;6230781;23;20170;-89
2021/12/10 03:58:53;;;;;;;26.03;11.37;;;;;;;;;;6212284;23;20166;-90
2021/12/10 04:01:58;;;;;;;27.57;12.20;;;;;;;;;;6230499;23;20194;-89
2021/12/10 04:05:04;;;;;;;28.70;12.20;;;;;;;;;;6214526;23;20237;-89
2021/12/10 04:08:16;;;;;;;25.30;11.00;;;;;;;;;;6210321;23;20167;-87
2021/12/10 04:11:23;;;;;;;24.10;10.07;;;;;;;;;;6211560;23;20247;-88
2021/12/10 04:14:28;;;;;;;27.10;11.10;;;;;;;;;;6229215;23;20155;-88
2021/12/10 04:17:34;;;;;;;26.80;10.77;;;;;;;;;;6210085;23;20607;-88
2021/12/10 04:20:40;;;;;;;27.60;11.73;;;;;;;;;;6212203;23;20250;-88
2021/12/10 04:23:45;;;;;;;25.17;11.00;;;;;;;;;;6210761;23;20210;-89
2021/12/10 04:26:52;;;;;;;23.33;10.17;;;;;;;;;;6215211;23;20214;-87
2021/12/10 04:29:58;;;;;;;29.23;11.60;;;;;;;;;;6213815;23;20171;-88
2021/12/10 04:33:03;;;;;;;27.93;10.57;;;;;;;;;;6212842;23;20186;-90
2021/12/10 04:36:09;;;;;;;24.43;10.57;;;;;;;;;;6212313;23;20171;-88
2021/12/10 04:39:14;;;;;;;25.00;10.10;;;;;;;;;;6214896;23;20195;-87
2021/12/10 04:42:22;;;;;;;26.77;10.37;;;;;;;;;;6214498;23;20198;-88
2021/12/10 04:45:27;;;;;;;24.13;10.70;;;;;;;;;;6214611;23;20171;-88
2021/12/10 04:48:44;;;;;;;24.17;11.00;;;;;;;;;;6213752;23;20675;-87
2021/12/10 04:51:51;;;;;;;26.67;10.57;;;;;;;;;;6214996;23;20167;-90
2021/12/10 04:54:56;;;;;;;24.90;11.60;;;;;;;;;;6213529;23;20171;-88
2021/12/10 04:58:03;;;;;;;25.23;9.63;;;;;;;;;;6217151;23;20182;-88
2021/12/10 05:01:37;;;;;;;24.97;10.50;;;;;;;;;;6214852;23;20530;-86
2021/12/10 05:04:43;;;;;;;22.60;10.10;;;;;;;;;;6216170;23;20151;-88
2021/12/10 05:07:57;;;;;;;24.63;9.60;;;;;;;;;;6216836;23;20206;-88
2021/12/10 05:11:04;;;;;;;27.90;10.00;;;;;;;;;;6217893;23;20174;-86
2021/12/10 05:14:10;;;;;;;22.40;10.67;;;;;;;;;;6217346;23;20191;-88
2021/12/10 05:17:16;;;;;;;22.70;10.03;;;;;;;;;;6217103;23;20175;-90
2021/12/10 05:20:23;;;;;;;19.77;9.60;;;;;;;;;;6217214;23;20164;-89
2021/12/10 05:23:28;;;;;;;21.10;8.33;;;;;;;;;;6214332;23;20175;-90
2021/12/10 05:26:33;;;;;;;22.80;8.60;;;;;;;;;;6216389;23;20155;-88
2021/12/10 05:29:40;;;;;;;23.77;9.40;;;;;;;;;;6214749;23;20183;-87
2021/12/10 05:32:46;;;;;;;22.77;9.43;;;;;;;;;;6214790;23;20191;-87
2021/12/10 05:35:52;;;;;;;24.00;9.87;;;;;;;;;;6215328;23;20164;-89
2021/12/10 05:38:57;;;;;;;24.33;9.87;;;;;;;;;;6215114;23;20203;-88
2021/12/10 05:42:04;;;;;;;22.17;9.03;;;;;;;;;;6216217;23;20275;-88
2021/12/10 05:45:11;;;;;;;21.27;9.93;;;;;;;;;;6213744;23;20167;-88
2021/12/10 05:48:17;;;;;;;26.37;10.27;;;;;;;;;;6217306;23;20151;-88
2021/12/10 05:51:23;;;;;;;26.90;9.67;;;;;;;;;;6217018;23;20155;-90
2021/12/10 05:54:28;;;;;;;33.83;11.57;;;;;;;;;;6219506;23;20179;-89
2021/12/10 05:57:34;;;;;;;27.47;11.70;;;;;;;;;;6219853;23;20175;-90
2021/12/10 06:00:43;;;;;;;28.37;10.77;;;;;;;;;;6217449;23;20211;-89
2021/12/10 06:03:52;;;;;;;27.13;10.83;;;;;;;;;;6218652;23;20171;-89
2021/12/10 06:06:58;;;;;;;28.23;10.47;;;;;;;;;;6219074;23;20615;-88
2021/12/10 06:10:03;;;;;;;26.80;10.63;;;;;;;;;;6218413;23;20528;-90
2021/12/10 06:13:09;;;;;;;29.13;11.33;;;;;;;;;;6220294;23;20172;-89
2021/12/10 06:16:17;;;;;;;28.97;12.00;;;;;;;;;;6220032;23;20250;-89
2021/12/10 06:19:24;;;;;;;33.70;12.43;;;;;;;;;;6219890;23;20179;-87
2021/12/10 06:22:29;;;;;;;25.53;10.87;;;;;;;;;;6217284;23;20198;-89
2021/12/10 06:25:35;;;;;;;20.70;9.90;;;;;;;;;;6215278;23;20163;-88
2021/12/10 06:28:44;;;;;;;30.37;11.47;;;;;;;;;;6215280;23;20206;-88
2021/12/10 06:31:51;;;;;;;31.93;11.47;;;;;;;;;;6215184;23;20627;-89
2021/12/10 06:34:56;;;;;;;26.60;10.63;;;;;;;;;;6215133;23;20167;-87
2021/12/10 06:38:02;;;;;;;27.60;11.37;;;;;;;;;;6217029;23;20235;-89
2021/12/10 06:41:08;;;;;;;29.10;10.57;;;;;;;;;;6213258;23;20194;-86
2021/12/10 06:44:14;;;;;;;27.63;10.60;;;;;;;;;;6213728;23;20193;-86
2021/12/10 06:47:21;;;;;;;27.50;10.83;;;;;;;;;;6212850;23;20191;-87
2021/12/10 06:50:28;;;;;;;25.37;10.87;;;;;;;;;;6212952;23;20220;-89
2021/12/10 06:53:33;;;;;;;27.07;10.40;;;;;;;;;;6217590;23;20167;-89
2021/12/10 06:56:40;;;;;;;23.30;9.37;;;;;;;;;;6216624;23;20207;-89
2021/12/10 06:59:45;;;;;;;19.13;8.47;;;;;;;;;;6217136;23;20171;-88
2021/12/10 07:02:52;;;;;;;16.90;7.50;;;;;;;;;;6216860;23;20264;-88
2021/12/10 07:06:00;;;;;;;18.17;8.20;;;;;;;;;;6215394;23;20602;-88
2021/12/10 07:12:58;;;;;;;19.97;7.53;;;;;;;;;;6218209;23;20167;-89
2021/12/10 07:16:06;;;;;;;16.03;6.73;;;;;;;;;;6217173;23;20890;-89
2021/12/10 07:19:13;;;;;;;15.80;6.80;;;;;;;;;;6217753;23;20175;-89
2021/12/10 07:22:18;;;;;;;19.50;7.50;;;;;;;;;;6215804;23;20264;-88
2021/12/10 07:25:25;;;;;;;18.50;7.00;;;;;;;;;;6219441;23;20170;-88
2021/12/10 07:28:31;;;;;;;11.10;5.83;;;;;;;;;;6199085;23;20254;-88
2021/12/10 07:31:38;;;;;;;12.23;5.87;;;;;;;;;;6216984;23;20250;-89
2021/12/10 07:34:44;;;;;;;12.70;5.73;;;;;;;;;;6214799;23;20174;-89
2021/12/10 07:37:50;;;;;;;13.80;6.50;;;;;;;;;;6215721;23;20190;-89
2021/12/10 07:58:33;;;;;;;17.37;7.53;;;;;;;;;;6197687;22;20227;-90
2021/12/10 08:01:38;;;;;;;16.90;7.77;;;;;;;;;;6216091;23;20191;-90
2021/12/10 08:04:43;;;;;;;14.83;7.17;;;;;;;;;;6216111;23;20615;-89
2021/12/10 08:07:52;;;;;;;16.43;7.63;;;;;;;;;;6216960;23;20159;-89
2021/12/10 08:10:58;;;;;;;16.80;7.93;;;;;;;;;;6215875;23;20195;-90
2021/12/10 08:14:04;;;;;;;19.57;7.20;;;;;;;;;;6217614;23;20182;-91
2021/12/10 08:17:10;;;;;;;17.13;7.30;;;;;;;;;;6215803;23;20172;-92
2021/12/10 08:20:19;;;;;;;15.47;7.10;;;;;;;;;;6215780;23;20155;-89
2021/12/10 08:23:25;;;;;;;16.67;7.20;;;;;;;;;;6215942;23;20239;-90
2021/12/10 08:26:30;;;;;;;20.57;7.77;;;;;;;;;;6215365;23;20186;-90
2021/12/10 08:29:37;;;;;;;18.87;8.83;;;;;;;;;;6214824;23;20175;-87
2021/12/10 08:32:43;;;;;;;19.60;7.57;;;;;;;;;;6214278;23;20176;-89
2021/12/10 08:35:50;;;;;;;19.80;8.20;;;;;;;;;;6217543;23;20171;-89
2021/12/10 08:38:55;;;;;;;18.93;8.33;;;;;;;;;;6217498;23;20163;-87
2021/12/10 08:42:01;;;;;;;22.40;9.23;;;;;;;;;;6218297;23;20178;-88
2021/12/10 20:49:09;;;;;;;24.10;10.93;;;;;;;;;;6176414;22;20387;31
2021/12/10 20:52:20;;;;;;;33.40;13.87;;;;;;;;;;6171856;23;20208;-90
2021/12/10 20:55:27;;;;;;;50.07;18.93;;;;;;;;;;6171257;23;20176;-88
2021/12/10 20:58:34;;;;;;;45.50;15.67;;;;;;;;;;6170448;23;20217;-89
2021/12/10 21:01:41;;;;;;;31.63;14.07;;;;;;;;;;6171839;23;20198;-90
2021/12/10 21:04:51;;;;;;;45.63;16.07;;;;;;;;;;6172705;23;20156;-91
2021/12/10 21:07:57;;;;;;;51.43;17.77;;;;;;;;;;6173382;23;20165;-90
2021/12/10 21:11:04;;;;;;;57.67;20.47;;;;;;;;;;6174018;23;20180;-90
2021/12/10 21:14:11;;;;;;;50.83;18.73;;;;;;;;;;6172583;23;20163;-90
2021/12/10 21:17:18;;;;;;;35.80;12.57;;;;;;;;;;6172811;23;20192;-90
2021/12/10 21:20:31;;;;;;;38.57;13.10;;;;;;;;;;6173519;23;20222;-88
2021/12/10 21:23:39;;;;;;;27.57;11.23;;;;;;;;;;6171125;23;20196;-88
2021/12/10 21:26:49;;;;;;;32.97;12.47;;;;;;;;;;6172332;23;20165;-89
2021/12/10 21:29:56;;;;;;;32.30;12.37;;;;;;;;;;6172738;23;20224;-87
2021/12/10 21:33:08;;;;;;;31.33;11.70;;;;;;;;;;6171915;23;20229;-88
2021/12/10 21:36:32;;;;;;;28.27;11.70;;;;;;;;;;6172142;23;20172;-89
2021/12/10 21:39:39;;;;;;;34.13;11.60;;;;;;;;;;6172869;23;20173;-87
2021/12/10 21:42:48;;;;;;;27.20;11.63;;;;;;;;;;6172302;23;20196;-87
2021/12/10 21:45:55;;;;;;;32.20;11.77;;;;;;;;;;6172918;23;20532;-89
2021/12/10 21:49:02;;;;;;;30.33;12.77;;;;;;;;;;6173906;23;20172;-87
2021/12/10 21:52:11;;;;;;;30.87;12.57;;;;;;;;;;6172427;23;20161;-89
2021/12/10 21:55:19;;;;;;;29.47;12.03;;;;;;;;;;6170433;23;20168;-86
2021/12/10 21:58:28;;;;;;;36.13;13.53;;;;;;;;;;6172758;23;20176;-89
2021/12/10 22:01:35;;;;;;;33.70;13.30;;;;;;;;;;6173263;23;20172;-89
2021/12/10 22:04:44;;;;;;;28.80;12.10;;;;;;;;;;6172399;23;20726;-89
2021/12/10 22:07:54;;;;;;;27.60;11.93;;;;;;;;;;6173368;23;20156;-89
2021/12/10 22:11:01;;;;;;;30.37;12.67;;;;;;;;;;6174831;23;20172;-88
2021/12/10 22:14:12;;;;;;;27.90;12.40;;;;;;;;;;6172549;23;20172;-89
2021/12/10 22:17:19;;;;;;;30.23;12.23;;;;;;;;;;6170545;23;20176;-87
2021/12/10 23:04:27;;;;;;;29.87;12.73;;;;;;;;;;6174676;22;20191;-87
2021/12/10 23:07:40;;;;;;;28.97;13.07;;;;;;;;;;6186879;23;20152;-90
2021/12/10 23:10:52;;;;;;;33.33;14.90;;;;;;;;;;6188641;23;20171;-89
2021/12/10 23:13:59;;;;;;;33.10;13.73;;;;;;;;;;6185675;23;20251;-89
2021/12/10 23:17:07;;;;;;;32.00;14.20;;;;;;;;;;6184994;23;20168;-88
2021/12/10 23:20:17;;;;;;;32.43;13.93;;;;;;;;;;6185900;23;20168;-88
2021/12/10 23:23:22;;;;;;;32.73;15.00;;;;;;;;;;6184913;23;20195;-89
2021/12/10 23:26:29;;;;;;;34.07;15.40;;;;;;;;;;6184209;23;20180;-90
2021/12/10 23:29:37;;;;;;;34.43;14.63;;;;;;;;;;6183048;23;20167;-89
2021/12/10 23:32:44;;;;;;;30.93;13.60;;;;;;;;;;6183386;23;20207;-90
2021/12/10 23:35:51;;;;;;;35.43;15.47;;;;;;;;;;6183859;23;20263;-87
2021/12/10 23:38:58;;;;;;;29.40;13.33;;;;;;;;;;6184406;23;20176;-86
2021/12/10 23:42:08;;;;;;;33.20;13.63;;;;;;;;;;6184348;23;20259;-88
2021/12/10 23:45:15;;;;;;;34.53;15.17;;;;;;;;;;6184163;23;20207;-89
2021/12/10 23:48:29;;;;;;;37.23;14.20;;;;;;;;;;6184063;23;20168;-90
2021/12/10 23:51:35;;;;;;;36.13;15.13;;;;;;;;;;6184392;23;20176;-88
2021/12/10 23:54:43;;;;;;;37.37;15.53;;;;;;;;;;6182569;23;20176;-88
2021/12/10 23:57:50;;;;;;;33.23;14.63;;;;;;;;;;6181781;23;20172;-90
